Time;durP1;ratioP1;P1;durP2;ratioP2;P2;SDS_P1;SDS_P2;PMS_P1;PMS_P2;Temp;Humidity;BMP_temperature;BMP_pressure;BME280_temperature;BME280_humidity;BME280_pressure;Samples;Min_cycle;Max_cycle;Signal;HPM_P1;HPM_P2
2022/11/28 00:02:13;;;;;;;10.47;6.33;;;;;;;;;;5017744;28;20484;-54
2022/11/28 00:04:39;;;;;;;7.27;5.67;;;;;;;;;;5059097;28;20572;-54
2022/11/28 00:07:05;;;;;;;6.70;6.00;;;;;;;;;;5033949;28;20560;-56
2022/11/28 00:09:31;;;;;;;12.37;6.70;;;;;;;;;;5055524;28;21015;-53
2022/11/28 00:11:57;;;;;;;8.47;6.13;;;;;;;;;;5023657;28;20460;-54
2022/11/28 00:14:23;;;;;;;6.23;5.60;;;;;;;;;;5064110;28;20482;-54
2022/11/28 00:16:49;;;;;;;6.53;5.77;;;;;;;;;;5054853;28;20463;-54
2022/11/28 00:19:15;;;;;;;9.60;7.40;;;;;;;;;;5059646;28;20440;-53
2022/11/28 00:21:41;;;;;;;8.80;6.37;;;;;;;;;;5058056;28;20437;-54
2022/11/28 00:24:07;;;;;;;7.30;6.10;;;;;;;;;;5062949;28;20437;-55
2022/11/28 00:26:34;;;;;;;6.83;5.60;;;;;;;;;;5027738;28;20474;-53
2022/11/28 00:29:00;;;;;;;9.10;5.83;;;;;;;;;;5061230;28;20433;-54
2022/11/28 00:31:27;;;;;;;15.13;7.20;;;;;;;;;;5015842;28;20516;-58
2022/11/28 00:33:53;;;;;;;9.10;6.70;;;;;;;;;;5059424;28;20445;-54
2022/11/28 00:36:19;;;;;;;8.63;6.53;;;;;;;;;;5056920;28;20422;-54
2022/11/28 00:38:45;;;;;;;8.43;6.47;;;;;;;;;;5057420;28;20967;-54
2022/11/28 00:41:14;;;;;;;7.80;6.97;;;;;;;;;;5029239;28;20965;-52
2022/11/28 00:43:41;;;;;;;9.87;6.30;;;;;;;;;;5055121;28;20426;-53
2022/11/28 00:46:07;;;;;;;8.97;6.67;;;;;;;;;;5049929;28;20474;-53
2022/11/28 00:48:33;;;;;;;8.07;6.13;;;;;;;;;;5058558;28;20441;-55
2022/11/28 00:51:09;;;;;;;9.17;6.30;;;;;;;;;;5036999;28;21286;-55
2022/11/28 00:53:35;;;;;;;9.80;6.43;;;;;;;;;;5063709;28;20510;-56
2022/11/28 00:56:00;;;;;;;7.53;5.27;;;;;;;;;;5036873;28;20454;-54
2022/11/28 00:58:26;;;;;;;8.77;5.50;;;;;;;;;;5061041;28;20426;-54
2022/11/28 01:00:52;;;;;;;8.13;6.40;;;;;;;;;;5051025;28;20525;-54
2022/11/28 01:03:19;;;;;;;13.57;9.10;;;;;;;;;;5056839;28;20442;-54
2022/11/28 01:05:45;;;;;;;8.90;7.30;;;;;;;;;;5023685;28;20563;-51
2022/11/28 01:08:11;;;;;;;11.00;6.00;;;;;;;;;;5039936;28;20474;-54
2022/11/28 01:10:41;;;;;;;6.37;5.10;;;;;;;;;;5046545;28;21194;-53
2022/11/28 01:13:07;;;;;;;12.50;6.33;;;;;;;;;;5041529;28;20441;-54
2022/11/28 01:15:32;;;;;;;8.67;5.87;;;;;;;;;;5058281;28;20429;-52
2022/11/28 01:17:58;;;;;;;7.00;5.40;;;;;;;;;;5048386;28;20467;-54
2022/11/28 01:20:24;;;;;;;8.10;5.40;;;;;;;;;;5030716;28;20437;-53
2022/11/28 01:22:50;;;;;;;7.10;6.10;;;;;;;;;;5054046;28;20446;-54
2022/11/28 01:25:16;;;;;;;7.97;6.33;;;;;;;;;;5048722;28;20471;-55
2022/11/28 01:27:42;;;;;;;10.10;6.20;;;;;;;;;;5057017;28;20469;-53
2022/11/28 01:30:08;;;;;;;8.63;6.40;;;;;;;;;;5032125;28;20444;-54
2022/11/28 01:32:34;;;;;;;8.10;5.80;;;;;;;;;;5051888;28;20524;-53
2022/11/28 01:35:00;;;;;;;9.47;5.77;;;;;;;;;;5037909;28;20433;-53
2022/11/28 01:37:28;;;;;;;7.77;6.47;;;;;;;;;;5046899;28;20548;-54
2022/11/28 01:39:54;;;;;;;7.87;6.40;;;;;;;;;;5013473;28;20436;-58
2022/11/28 01:42:20;;;;;;;8.00;7.10;;;;;;;;;;5055320;28;20441;-60
2022/11/28 01:44:49;;;;;;;9.60;6.03;;;;;;;;;;5031712;28;21004;-54
2022/11/28 01:47:15;;;;;;;12.03;7.10;;;;;;;;;;5060560;28;20646;-54
2022/11/28 01:49:41;;;;;;;9.30;6.83;;;;;;;;;;5029670;28;21037;-54
2022/11/28 01:52:08;;;;;;;7.33;6.63;;;;;;;;;;5055852;28;20456;-53
2022/11/28 01:54:34;;;;;;;6.50;5.83;;;;;;;;;;5055004;28;21204;-53
2022/11/28 01:57:01;;;;;;;9.33;6.60;;;;;;;;;;5058619;28;20552;-53
2022/11/28 01:59:27;;;;;;;8.47;6.20;;;;;;;;;;5057573;28;20429;-54
2022/11/28 02:01:53;;;;;;;7.40;6.03;;;;;;;;;;5054726;28;20434;-55
2022/11/28 02:04:19;;;;;;;8.17;5.33;;;;;;;;;;5035127;28;23209;-54
2022/11/28 02:06:45;;;;;;;9.10;6.20;;;;;;;;;;5053404;28;20494;-53
2022/11/28 02:09:15;;;;;;;6.60;5.80;;;;;;;;;;5043724;28;20430;-54
2022/11/28 02:12:00;;;;;;;8.03;6.00;;;;;;;;;;5045024;28;20445;-53
2022/11/28 02:14:44;;;;;;;8.90;6.97;;;;;;;;;;5056192;28;20424;-54
2022/11/28 02:17:21;;;;;;;6.93;5.80;;;;;;;;;;5056488;28;20463;-54
2022/11/28 02:20:06;;;;;;;10.53;6.87;;;;;;;;;;5025824;28;22940;-53
2022/11/28 02:22:35;;;;;;;8.10;5.53;;;;;;;;;;5059990;28;20435;-52
2022/11/28 02:25:20;;;;;;;7.57;6.03;;;;;;;;;;5050134;28;20459;-54
2022/11/28 02:27:48;;;;;;;6.63;5.70;;;;;;;;;;5054273;28;20480;-53
2022/11/28 02:30:18;;;;;;;7.67;5.20;;;;;;;;;;5031269;28;20449;-55
2022/11/28 02:32:44;;;;;;;6.50;5.53;;;;;;;;;;5054050;28;20970;-52
2022/11/28 02:35:12;;;;;;;9.13;6.60;;;;;;;;;;5048911;28;20474;-53
2022/11/28 02:37:41;;;;;;;5.23;4.73;;;;;;;;;;5056652;28;20450;-53
2022/11/28 02:40:20;;;;;;;7.30;5.30;;;;;;;;;;5026721;28;20475;-54
2022/11/28 02:42:58;;;;;;;12.20;8.63;;;;;;;;;;5056672;28;20433;-53
2022/11/28 02:45:28;;;;;;;6.90;5.73;;;;;;;;;;5018962;28;20437;-52
2022/11/28 02:47:56;;;;;;;10.47;6.17;;;;;;;;;;5053158;28;20950;-53
2022/11/28 02:50:25;;;;;;;7.80;6.50;;;;;;;;;;5017512;28;20528;-53
2022/11/28 02:52:51;;;;;;;7.43;5.43;;;;;;;;;;5054231;28;20453;-53
2022/11/28 02:55:17;;;;;;;6.93;5.40;;;;;;;;;;5056696;28;20938;-53
2022/11/28 02:57:47;;;;;;;9.90;6.00;;;;;;;;;;5063182;28;20437;-54
2022/11/28 03:00:24;;;;;;;8.10;6.33;;;;;;;;;;5029450;28;20437;-55
2022/11/28 03:03:00;;;;;;;8.37;5.43;;;;;;;;;;5064902;28;20449;-52
2022/11/28 03:05:31;;;;;;;9.57;5.63;;;;;;;;;;5059699;28;20490;-54
2022/11/28 03:07:56;;;;;;;8.27;6.00;;;;;;;;;;5076058;28;20481;-52
2022/11/28 03:10:44;;;;;;;5.73;5.13;;;;;;;;;;5027558;28;20456;-53
2022/11/28 03:13:10;;;;;;;7.07;5.47;;;;;;;;;;5057245;28;20436;-54
2022/11/28 03:15:38;;;;;;;8.57;6.07;;;;;;;;;;5050203;28;20414;-54
2022/11/28 03:18:11;;;;;;;8.87;5.70;;;;;;;;;;5056085;28;20847;-53
2022/11/28 03:20:52;;;;;;;7.77;5.47;;;;;;;;;;5015992;28;20752;-54
2022/11/28 03:23:18;;;;;;;8.13;4.50;;;;;;;;;;5064630;28;20460;-53
2022/11/28 03:25:47;;;;;;;6.67;5.77;;;;;;;;;;5056641;28;20437;-53
2022/11/28 03:28:22;;;;;;;6.10;5.40;;;;;;;;;;5037150;28;20488;-53
2022/11/28 03:30:48;;;;;;;6.97;5.40;;;;;;;;;;5057443;28;20426;-53
2022/11/28 03:33:15;;;;;;;6.13;5.30;;;;;;;;;;5036819;28;20464;-52
2022/11/28 03:35:42;;;;;;;7.77;5.90;;;;;;;;;;5056992;28;20441;-53
2022/11/28 03:38:10;;;;;;;11.53;5.30;;;;;;;;;;5069960;28;20422;-53
2022/11/28 03:40:39;;;;;;;7.43;5.40;;;;;;;;;;5058991;28;20510;-53
2022/11/28 03:43:07;;;;;;;6.00;4.23;;;;;;;;;;5030666;28;20432;-53
2022/11/28 03:45:34;;;;;;;6.53;5.30;;;;;;;;;;5058153;28;20551;-53
2022/11/28 03:48:01;;;;;;;8.33;5.40;;;;;;;;;;5058882;28;20833;-52
2022/11/28 03:50:34;;;;;;;5.70;4.20;;;;;;;;;;5056456;28;20464;-53
2022/11/28 03:53:02;;;;;;;10.20;5.30;;;;;;;;;;5029845;28;20472;-53
2022/11/28 03:55:39;;;;;;;6.03;5.17;;;;;;;;;;5059861;28;20425;-53
2022/11/28 03:58:05;;;;;;;6.93;4.90;;;;;;;;;;5052171;28;20506;-54
2022/11/28 04:00:32;;;;;;;7.93;4.83;;;;;;;;;;5053210;28;20429;-54
2022/11/28 04:03:16;;;;;;;10.33;5.07;;;;;;;;;;5036373;28;20445;-53
2022/11/28 04:06:08;;;;;;;6.20;5.13;;;;;;;;;;5059293;28;20868;-53
2022/11/28 04:08:43;;;;;;;6.03;5.40;;;;;;;;;;5057471;28;20454;-52
2022/11/28 04:11:18;;;;;;;8.33;5.27;;;;;;;;;;5070370;28;20436;-55
2022/11/28 04:14:07;;;;;;;5.60;4.50;;;;;;;;;;5034835;28;20452;-55
2022/11/28 04:16:33;;;;;;;5.53;5.03;;;;;;;;;;5055267;28;20795;-56
2022/11/28 04:19:01;;;;;;;5.83;5.00;;;;;;;;;;5027571;28;20450;-56
2022/11/28 04:21:30;;;;;;;8.37;5.80;;;;;;;;;;5055162;28;20434;-53
2022/11/28 04:23:59;;;;;;;7.30;5.87;;;;;;;;;;5016012;28;20429;-53
2022/11/28 04:26:30;;;;;;;6.10;4.33;;;;;;;;;;5033932;28;20489;-53
2022/11/28 04:28:56;;;;;;;5.93;5.20;;;;;;;;;;5060432;28;20482;-53
2022/11/28 04:31:23;;;;;;;5.40;4.40;;;;;;;;;;5054458;28;20537;-56
2022/11/28 04:33:50;;;;;;;6.97;5.90;;;;;;;;;;5055472;28;20436;-53
2022/11/28 04:36:16;;;;;;;5.73;4.00;;;;;;;;;;5057619;28;20440;-53
2022/11/28 04:38:42;;;;;;;5.50;4.57;;;;;;;;;;5054561;28;20433;-54
2022/11/28 04:41:13;;;;;;;7.30;4.43;;;;;;;;;;5075051;28;20441;-53
2022/11/28 04:43:40;;;;;;;6.63;4.50;;;;;;;;;;5030881;28;20452;-53
2022/11/28 04:46:10;;;;;;;6.33;5.57;;;;;;;;;;5053779;28;20442;-53
2022/11/28 04:48:36;;;;;;;6.57;5.17;;;;;;;;;;5040186;28;21214;-53
2022/11/28 04:51:14;;;;;;;10.20;5.10;;;;;;;;;;5054274;28;20471;-53
2022/11/28 04:53:59;;;;;;;6.67;4.10;;;;;;;;;;4984065;28;21263;-53
2022/11/28 04:56:28;;;;;;;8.50;4.30;;;;;;;;;;5059875;28;20443;-52
2022/11/28 04:58:53;;;;;;;5.80;4.07;;;;;;;;;;5068491;28;20936;-53
2022/11/28 05:01:26;;;;;;;6.07;4.13;;;;;;;;;;5058196;28;20445;-53
2022/11/28 05:03:52;;;;;;;9.50;5.33;;;;;;;;;;5048892;28;20459;-53
2022/11/28 05:06:23;;;;;;;9.23;4.63;;;;;;;;;;5058490;28;20522;-53
2022/11/28 05:08:49;;;;;;;7.20;4.33;;;;;;;;;;5059105;28;20603;-53
2022/11/28 05:11:15;;;;;;;6.70;4.43;;;;;;;;;;5051920;28;20474;-53
2022/11/28 05:13:41;;;;;;;6.00;4.37;;;;;;;;;;5058685;28;21617;-53
2022/11/28 05:16:07;;;;;;;5.80;5.10;;;;;;;;;;5049215;28;20464;-56
2022/11/28 05:18:33;;;;;;;5.77;4.97;;;;;;;;;;5048043;28;20521;-54
2022/11/28 05:21:00;;;;;;;9.13;5.47;;;;;;;;;;5030564;28;20449;-53
2022/11/28 05:23:26;;;;;;;8.03;4.30;;;;;;;;;;5052638;28;20430;-53
2022/11/28 05:25:52;;;;;;;6.43;4.60;;;;;;;;;;5011090;28;20449;-55
2022/11/28 05:28:18;;;;;;;6.63;3.70;;;;;;;;;;5053802;28;20484;-53
2022/11/28 05:30:44;;;;;;;7.13;4.90;;;;;;;;;;5053517;28;20422;-54
2022/11/28 05:33:10;;;;;;;7.30;5.03;;;;;;;;;;5054359;28;20938;-53
2022/11/28 05:35:38;;;;;;;5.50;4.00;;;;;;;;;;5049047;28;20497;-53
2022/11/28 05:38:04;;;;;;;5.63;4.07;;;;;;;;;;5049058;28;20541;-53
2022/11/28 05:40:30;;;;;;;4.07;3.10;;;;;;;;;;5037080;28;21266;-52
2022/11/28 05:42:56;;;;;;;6.20;4.10;;;;;;;;;;5040248;28;20437;-51
2022/11/28 05:45:22;;;;;;;5.53;3.80;;;;;;;;;;5040709;28;20495;-55
2022/11/28 05:47:48;;;;;;;5.03;3.93;;;;;;;;;;5037419;28;20516;-51
2022/11/28 05:50:14;;;;;;;7.87;4.23;;;;;;;;;;5045313;28;20468;-52
2022/11/28 05:52:40;;;;;;;5.33;4.37;;;;;;;;;;5033505;28;20440;-53
2022/11/28 05:55:06;;;;;;;3.77;3.33;;;;;;;;;;5044508;28;20446;-53
2022/11/28 05:57:32;;;;;;;7.60;4.20;;;;;;;;;;5027217;28;20457;-52
2022/11/28 05:59:58;;;;;;;5.33;4.23;;;;;;;;;;5052390;28;20453;-53
2022/11/28 06:02:25;;;;;;;8.40;4.77;;;;;;;;;;5014551;28;20529;-53
2022/11/28 06:04:51;;;;;;;6.73;4.47;;;;;;;;;;5053469;28;20595;-53
2022/11/28 06:07:18;;;;;;;4.77;4.20;;;;;;;;;;5055178;28;21005;-53
2022/11/28 06:09:44;;;;;;;4.17;3.70;;;;;;;;;;5039562;28;20437;-50
2022/11/28 06:12:10;;;;;;;5.93;4.30;;;;;;;;;;5029789;28;20445;-53
2022/11/28 06:14:36;;;;;;;4.43;3.53;;;;;;;;;;5052170;28;20899;-53
2022/11/28 06:17:02;;;;;;;6.10;3.50;;;;;;;;;;5048370;28;20431;-54
2022/11/28 06:19:28;;;;;;;4.77;4.00;;;;;;;;;;5058479;28;20524;-53
2022/11/28 06:21:55;;;;;;;7.30;3.80;;;;;;;;;;5058466;28;20440;-53
2022/11/28 06:24:21;;;;;;;5.77;3.87;;;;;;;;;;5064435;28;20459;-53
2022/11/28 06:26:47;;;;;;;4.97;3.87;;;;;;;;;;5035641;28;20478;-55
2022/11/28 06:29:13;;;;;;;6.97;4.87;;;;;;;;;;5062299;28;20432;-55
2022/11/28 06:31:39;;;;;;;8.40;4.90;;;;;;;;;;5037338;28;20440;-54
2022/11/28 06:34:05;;;;;;;5.60;4.50;;;;;;;;;;5062640;28;20483;-53
2022/11/28 06:36:30;;;;;;;7.30;4.17;;;;;;;;;;5017460;28;20500;-54
2022/11/28 06:38:56;;;;;;;8.07;4.73;;;;;;;;;;5062412;28;20841;-54
2022/11/28 06:41:22;;;;;;;6.27;4.30;;;;;;;;;;5041258;28;20433;-54
2022/11/28 06:43:48;;;;;;;6.93;4.40;;;;;;;;;;5054016;28;20444;-51
2022/11/28 06:46:16;;;;;;;9.27;4.53;;;;;;;;;;5056125;28;20954;-53
2022/11/28 06:48:42;;;;;;;6.10;4.80;;;;;;;;;;5065866;28;20453;-54
2022/11/28 06:51:08;;;;;;;6.80;5.03;;;;;;;;;;5064271;28;20971;-53
2022/11/28 06:53:35;;;;;;;6.80;5.10;;;;;;;;;;5062501;28;20441;-54
2022/11/28 06:56:05;;;;;;;6.20;4.67;;;;;;;;;;5050944;28;20426;-53
2022/11/28 06:58:31;;;;;;;6.50;4.80;;;;;;;;;;5048935;28;20508;-54
2022/11/28 07:00:56;;;;;;;6.30;5.43;;;;;;;;;;5059483;28;20425;-54
2022/11/28 07:03:22;;;;;;;6.07;4.80;;;;;;;;;;5033487;28;20821;-54
2022/11/28 07:05:48;;;;;;;8.20;4.77;;;;;;;;;;5061938;28;20931;-54
2022/11/28 07:08:14;;;;;;;9.10;5.20;;;;;;;;;;5017360;28;20531;-58
2022/11/28 07:10:40;;;;;;;6.93;5.57;;;;;;;;;;5058195;28;20769;-53
2022/11/28 07:13:06;;;;;;;6.60;4.80;;;;;;;;;;5040110;28;20508;-54
2022/11/28 07:15:32;;;;;;;7.03;4.60;;;;;;;;;;5058802;28;20425;-54
2022/11/28 07:17:58;;;;;;;5.27;3.93;;;;;;;;;;5060076;28;20441;-55
2022/11/28 07:20:24;;;;;;;6.40;5.40;;;;;;;;;;5060634;28;20517;-53
2022/11/28 07:22:50;;;;;;;6.87;4.43;;;;;;;;;;5041182;28;20454;-54
2022/11/28 07:25:16;;;;;;;6.50;5.00;;;;;;;;;;5068502;28;20445;-54
2022/11/28 07:27:42;;;;;;;6.50;4.53;;;;;;;;;;5061266;28;20986;-53
2022/11/28 07:30:08;;;;;;;7.63;5.10;;;;;;;;;;5063694;28;20432;-53
2022/11/28 07:32:34;;;;;;;5.50;4.73;;;;;;;;;;5040123;28;20441;-54
2022/11/28 07:35:00;;;;;;;6.07;4.43;;;;;;;;;;5060480;28;20445;-54
2022/11/28 07:37:26;;;;;;;4.90;4.00;;;;;;;;;;5057580;28;20492;-53
2022/11/28 07:39:52;;;;;;;7.50;4.37;;;;;;;;;;5058723;28;20455;-52
2022/11/28 07:42:18;;;;;;;5.60;4.43;;;;;;;;;;5018785;28;20520;-53
2022/11/28 07:44:45;;;;;;;9.20;5.43;;;;;;;;;;5047517;28;20434;-54
2022/11/28 07:47:11;;;;;;;6.67;4.73;;;;;;;;;;5021587;28;20560;-55
2022/11/28 07:49:37;;;;;;;6.70;4.80;;;;;;;;;;5032456;28;20795;-54
2022/11/28 07:52:03;;;;;;;7.57;4.50;;;;;;;;;;5044538;28;20461;-53
2022/11/28 07:54:29;;;;;;;7.63;4.53;;;;;;;;;;5045883;28;20444;-54
2022/11/28 07:56:55;;;;;;;7.17;4.30;;;;;;;;;;5056870;28;20434;-53
2022/11/28 07:59:21;;;;;;;4.80;4.30;;;;;;;;;;5051371;28;20438;-52
2022/11/28 08:01:47;;;;;;;4.87;4.37;;;;;;;;;;5036279;28;20473;-53
2022/11/28 08:04:13;;;;;;;5.93;4.10;;;;;;;;;;5058608;28;20432;-54
2022/11/28 08:06:40;;;;;;;6.93;4.83;;;;;;;;;;5036440;28;20480;-54
2022/11/28 08:09:06;;;;;;;6.10;4.40;;;;;;;;;;5056769;28;20962;-54
2022/11/28 08:11:32;;;;;;;13.57;5.40;;;;;;;;;;5040567;28;20449;-53
2022/11/28 08:13:58;;;;;;;5.43;4.63;;;;;;;;;;5059775;28;20447;-52
2022/11/28 08:16:24;;;;;;;8.53;4.07;;;;;;;;;;5011758;28;20442;-54
2022/11/28 08:18:51;;;;;;;6.20;4.13;;;;;;;;;;5058192;28;21199;-55
2022/11/28 08:21:18;;;;;;;8.03;4.37;;;;;;;;;;5056867;28;20583;-53
2022/11/28 08:23:46;;;;;;;5.03;4.30;;;;;;;;;;5051623;28;20437;-54
2022/11/28 08:26:13;;;;;;;11.57;5.87;;;;;;;;;;5018316;28;20447;-55
2022/11/28 08:28:39;;;;;;;6.00;5.37;;;;;;;;;;5057437;28;20449;-54
2022/11/28 08:31:10;;;;;;;5.37;4.57;;;;;;;;;;5056357;28;20438;-53
2022/11/28 08:33:35;;;;;;;7.23;5.23;;;;;;;;;;5062657;28;20457;-53
2022/11/28 08:36:05;;;;;;;6.77;5.27;;;;;;;;;;5034468;28;20991;-54
2022/11/28 08:38:31;;;;;;;7.57;5.37;;;;;;;;;;5062756;28;20791;-53
2022/11/28 08:41:01;;;;;;;7.77;5.20;;;;;;;;;;5036017;28;20429;-53
2022/11/28 08:43:27;;;;;;;7.80;6.63;;;;;;;;;;5056514;28;20457;-53
2022/11/28 08:45:53;;;;;;;9.97;6.20;;;;;;;;;;5016943;28;21015;-53
2022/11/28 08:48:19;;;;;;;7.07;5.87;;;;;;;;;;5063811;28;20477;-53
2022/11/28 08:50:46;;;;;;;5.60;4.93;;;;;;;;;;5057041;28;20979;-52
2022/11/28 08:53:12;;;;;;;6.70;5.30;;;;;;;;;;5066086;28;20472;-54
2022/11/28 08:55:40;;;;;;;6.40;4.27;;;;;;;;;;5057964;28;20458;-54
2022/11/28 08:58:06;;;;;;;5.67;4.73;;;;;;;;;;5055221;28;20437;-59
2022/11/28 09:00:32;;;;;;;8.47;4.90;;;;;;;;;;5059166;28;20873;-53
2022/11/28 09:02:58;;;;;;;6.20;3.77;;;;;;;;;;5063591;28;21006;-52
2022/11/28 09:05:24;;;;;;;7.53;4.13;;;;;;;;;;5035688;28;20440;-53
2022/11/28 09:07:50;;;;;;;7.43;4.00;;;;;;;;;;5064670;28;20491;-53
2022/11/28 09:10:16;;;;;;;3.87;2.60;;;;;;;;;;5038850;28;20447;-52
2022/11/28 09:12:42;;;;;;;4.30;2.97;;;;;;;;;;5057539;28;20847;-53
2022/11/28 09:15:08;;;;;;;7.40;4.00;;;;;;;;;;5072250;28;20438;-53
2022/11/28 09:17:34;;;;;;;3.30;2.90;;;;;;;;;;5062497;28;20499;-53
2022/11/28 09:20:00;;;;;;;3.00;2.53;;;;;;;;;;5012148;28;20419;-53
2022/11/28 09:22:28;;;;;;;7.47;4.50;;;;;;;;;;5059144;28;20444;-53
2022/11/28 09:24:54;;;;;;;4.90;3.40;;;;;;;;;;5041855;28;21481;-53
2022/11/28 09:27:20;;;;;;;3.93;3.27;;;;;;;;;;5055661;28;20480;-55
2022/11/28 09:29:46;;;;;;;9.27;3.97;;;;;;;;;;5052561;28;20445;-53
2022/11/28 09:32:12;;;;;;;4.20;3.37;;;;;;;;;;5058991;28;20431;-55
2022/11/28 09:34:38;;;;;;;6.60;3.97;;;;;;;;;;5055753;28;21096;-53
2022/11/28 09:37:04;;;;;;;7.10;3.43;;;;;;;;;;5056933;28;20928;-53
2022/11/28 09:39:30;;;;;;;6.70;2.50;;;;;;;;;;5051493;28;21296;-54
2022/11/28 09:42:02;;;;;;;3.53;3.07;;;;;;;;;;5037687;28;20544;-54
2022/11/28 09:44:27;;;;;;;4.20;2.43;;;;;;;;;;5041433;28;21331;-52
2022/11/28 09:46:54;;;;;;;4.47;2.70;;;;;;;;;;5046779;28;20484;-54
2022/11/28 09:49:25;;;;;;;4.03;2.80;;;;;;;;;;5061173;28;20179;-56
2022/11/28 09:51:52;;;;;;;4.03;2.67;;;;;;;;;;5075093;28;22372;-55
2022/11/28 09:54:25;;;;;;;6.90;2.60;;;;;;;;;;5044264;28;22297;-54
2022/11/28 09:56:51;;;;;;;6.13;2.60;;;;;;;;;;5037573;28;20439;-55
2022/11/28 09:59:17;;;;;;;5.70;3.33;;;;;;;;;;5055593;28;20439;-55
2022/11/28 10:01:52;;;;;;;4.00;3.27;;;;;;;;;;5026942;28;20430;-54
2022/11/28 10:04:24;;;;;;;3.17;2.67;;;;;;;;;;5054594;28;20945;-56
2022/11/28 10:06:52;;;;;;;3.83;3.47;;;;;;;;;;5039772;28;20588;-53
2022/11/28 10:09:25;;;;;;;7.10;5.70;;;;;;;;;;5065162;28;20422;-53
2022/11/28 10:11:54;;;;;;;9.00;6.00;;;;;;;;;;5029818;28;20527;-54
2022/11/28 10:14:43;;;;;;;6.97;4.60;;;;;;;;;;5056968;28;20437;-54
2022/11/28 10:17:12;;;;;;;8.77;5.70;;;;;;;;;;5029211;28;20440;-60
2022/11/28 10:19:40;;;;;;;6.80;6.17;;;;;;;;;;5062535;28;20434;-54
2022/11/28 10:22:07;;;;;;;7.60;5.40;;;;;;;;;;5052737;28;20442;-53
2022/11/28 10:24:40;;;;;;;5.83;4.63;;;;;;;;;;5082962;28;20645;-54
2022/11/28 10:27:06;;;;;;;6.17;5.07;;;;;;;;;;5035252;28;20465;-56
2022/11/28 10:29:37;;;;;;;7.17;4.87;;;;;;;;;;5057746;28;20559;-54
2022/11/28 10:32:04;;;;;;;5.20;4.20;;;;;;;;;;5047432;28;20472;-54
2022/11/28 10:34:39;;;;;;;8.13;4.43;;;;;;;;;;5066692;28;20445;-54
2022/11/28 10:37:20;;;;;;;7.50;5.70;;;;;;;;;;5058696;28;20457;-54
2022/11/28 10:39:46;;;;;;;7.40;6.57;;;;;;;;;;5062022;28;20495;-55
2022/11/28 10:42:13;;;;;;;13.97;6.20;;;;;;;;;;5038104;28;21376;-54
2022/11/28 10:44:51;;;;;;;8.50;6.27;;;;;;;;;;5053636;28;20433;-53
2022/11/28 10:47:17;;;;;;;10.10;5.87;;;;;;;;;;5036636;28;20474;-55
2022/11/28 10:49:51;;;;;;;11.40;6.80;;;;;;;;;;5056823;28;20440;-55
2022/11/28 10:52:20;;;;;;;13.63;6.63;;;;;;;;;;5059333;28;20210;-55
2022/11/28 10:54:52;;;;;;;7.63;6.20;;;;;;;;;;5049747;28;20469;-54
2022/11/28 10:57:22;;;;;;;9.10;6.30;;;;;;;;;;5060593;28;20449;-55
2022/11/28 10:59:54;;;;;;;9.70;6.30;;;;;;;;;;5022839;28;20437;-52
2022/11/28 11:02:20;;;;;;;7.33;6.50;;;;;;;;;;5030857;28;20464;-55
2022/11/28 11:04:47;;;;;;;11.97;6.27;;;;;;;;;;5059442;28;20836;-54
2022/11/28 11:07:33;;;;;;;8.40;6.67;;;;;;;;;;5037067;28;20476;-54
2022/11/28 11:10:07;;;;;;;15.23;7.80;;;;;;;;;;5054112;28;20453;-52
2022/11/28 11:12:33;;;;;;;7.60;6.80;;;;;;;;;;5036857;28;20433;-55
2022/11/28 11:15:01;;;;;;;7.50;6.03;;;;;;;;;;5075545;28;20597;-52
2022/11/28 11:17:32;;;;;;;10.73;6.30;;;;;;;;;;5038057;28;20441;-54
2022/11/28 11:19:58;;;;;;;11.63;6.43;;;;;;;;;;5046671;28;22046;-53
2022/11/28 11:22:27;;;;;;;8.57;6.83;;;;;;;;;;5051661;28;20798;-54
2022/11/28 11:25:12;;;;;;;7.40;6.57;;;;;;;;;;5045783;28;20453;-53
2022/11/28 11:27:38;;;;;;;7.07;6.37;;;;;;;;;;5057549;28;20513;-55
2022/11/28 11:30:23;;;;;;;9.40;4.40;;;;;;;;;;5026092;28;24090;-53
2022/11/28 11:32:49;;;;;;;6.93;4.77;;;;;;;;;;5066914;28;20797;-55
2022/11/28 11:35:25;;;;;;;11.27;5.87;;;;;;;;;;5059661;28;20526;-55
2022/11/28 11:37:51;;;;;;;6.53;5.00;;;;;;;;;;5057054;28;20429;-55
2022/11/28 11:40:20;;;;;;;11.00;5.53;;;;;;;;;;5049031;28;20425;-55
2022/11/28 11:42:54;;;;;;;13.70;6.27;;;;;;;;;;5062416;28;20874;-55
2022/11/28 11:45:33;;;;;;;10.77;6.07;;;;;;;;;;5031699;28;20562;-53
2022/11/28 11:47:59;;;;;;;7.40;5.60;;;;;;;;;;5062550;28;20936;-55
2022/11/28 11:50:26;;;;;;;8.07;5.80;;;;;;;;;;5036802;28;20445;-54
2022/11/28 11:53:10;;;;;;;5.53;4.80;;;;;;;;;;5066980;28;20453;-55
2022/11/28 11:55:45;;;;;;;8.30;5.53;;;;;;;;;;5055680;28;20879;-53
2022/11/28 11:58:11;;;;;;;8.50;6.97;;;;;;;;;;5068559;28;20429;-53
2022/11/28 12:00:40;;;;;;;9.13;6.07;;;;;;;;;;5031090;28;20441;-56
2022/11/28 12:03:15;;;;;;;13.20;7.60;;;;;;;;;;5067788;28;20520;-58
2022/11/28 12:05:54;;;;;;;9.10;6.00;;;;;;;;;;5016584;28;20437;-54
2022/11/28 12:08:43;;;;;;;7.30;4.57;;;;;;;;;;5084644;28;20830;-54
2022/11/28 12:11:09;;;;;;;7.30;5.37;;;;;;;;;;5027325;28;20495;-55
2022/11/28 12:13:35;;;;;;;7.73;5.20;;;;;;;;;;5063815;28;20461;-55
2022/11/28 12:16:19;;;;;;;8.10;5.90;;;;;;;;;;5056795;28;20426;-55
2022/11/28 12:18:58;;;;;;;7.03;5.30;;;;;;;;;;5045986;28;20572;-54
2022/11/28 12:21:30;;;;;;;6.80;5.63;;;;;;;;;;5057765;28;20535;-53
2022/11/28 12:24:08;;;;;;;11.57;5.30;;;;;;;;;;5045253;28;20440;-54
2022/11/28 12:26:43;;;;;;;7.77;6.00;;;;;;;;;;5053128;28;20468;-54
2022/11/28 12:29:28;;;;;;;10.77;6.43;;;;;;;;;;5060925;28;20486;-55
2022/11/28 12:32:08;;;;;;;8.17;5.83;;;;;;;;;;5056673;28;20425;-53
2022/11/28 12:34:41;;;;;;;6.13;4.40;;;;;;;;;;5025262;28;20576;-53
2022/11/28 12:37:12;;;;;;;6.73;5.37;;;;;;;;;;5055344;28;20969;-53
2022/11/28 12:39:38;;;;;;;7.13;4.30;;;;;;;;;;5040084;28;20445;-53
2022/11/28 12:42:16;;;;;;;10.70;4.40;;;;;;;;;;5056787;28;20440;-55
2022/11/28 12:44:47;;;;;;;7.43;4.40;;;;;;;;;;4987883;28;20954;-56
2022/11/28 12:47:27;;;;;;;5.23;4.40;;;;;;;;;;5045502;28;20481;-55
2022/11/28 12:50:08;;;;;;;7.27;4.50;;;;;;;;;;5017405;28;21151;-53
2022/11/28 12:52:43;;;;;;;8.40;4.70;;;;;;;;;;5069418;28;20809;-54
2022/11/28 12:55:18;;;;;;;7.87;5.37;;;;;;;;;;5012779;28;21098;-54
2022/11/28 12:57:49;;;;;;;6.50;4.80;;;;;;;;;;5055983;28;20535;-54
2022/11/28 13:00:19;;;;;;;6.40;4.80;;;;;;;;;;5046903;28;20560;-54
2022/11/28 13:03:00;;;;;;;5.73;4.60;;;;;;;;;;5058760;28;20441;-54
2022/11/28 13:05:32;;;;;;;6.90;4.23;;;;;;;;;;5054430;28;20424;-55
2022/11/28 13:08:12;;;;;;;6.10;5.10;;;;;;;;;;5062743;28;20522;-55
2022/11/28 13:10:58;;;;;;;6.70;4.30;;;;;;;;;;5009112;28;20560;-52
2022/11/28 13:13:27;;;;;;;6.67;5.20;;;;;;;;;;5051918;28;20483;-55
2022/11/28 13:15:59;;;;;;;6.93;4.33;;;;;;;;;;5034752;28;21015;-55
2022/11/28 13:18:25;;;;;;;7.90;4.07;;;;;;;;;;5054422;28;20460;-55
2022/11/28 13:20:54;;;;;;;6.63;2.90;;;;;;;;;;5049796;28;20425;-54
2022/11/28 13:23:25;;;;;;;4.10;3.50;;;;;;;;;;5056294;28;20897;-55
2022/11/28 13:26:10;;;;;;;5.93;3.20;;;;;;;;;;5008043;28;20489;-54
2022/11/28 13:28:38;;;;;;;5.57;4.80;;;;;;;;;;5057104;28;20538;-53
2022/11/28 13:31:11;;;;;;;4.10;3.70;;;;;;;;;;5037577;28;20978;-54
2022/11/28 13:33:50;;;;;;;5.90;3.97;;;;;;;;;;5068889;28;20462;-53
2022/11/28 13:36:19;;;;;;;5.20;3.20;;;;;;;;;;5033556;28;20544;-54
2022/11/28 13:38:55;;;;;;;4.40;3.37;;;;;;;;;;5055508;28;20969;-55
2022/11/28 13:41:25;;;;;;;7.20;4.77;;;;;;;;;;5028917;28;20447;-55
2022/11/28 13:43:54;;;;;;;10.93;6.10;;;;;;;;;;5060680;28;20492;-55
2022/11/28 13:46:20;;;;;;;6.63;3.87;;;;;;;;;;5048340;28;20482;-54
2022/11/28 13:48:47;;;;;;;8.20;4.00;;;;;;;;;;5061112;28;23404;-54
2022/11/28 13:51:21;;;;;;;4.43;3.50;;;;;;;;;;5051771;28;20449;-54
2022/11/28 13:53:48;;;;;;;9.00;3.97;;;;;;;;;;5053319;28;20445;-53
2022/11/28 13:56:20;;;;;;;7.83;4.17;;;;;;;;;;5024827;28;20477;-53
2022/11/28 13:58:53;;;;;;;6.60;3.50;;;;;;;;;;5059941;28;20926;-54
2022/11/28 14:01:26;;;;;;;4.50;3.53;;;;;;;;;;5037413;28;20448;-52
2022/11/28 14:03:53;;;;;;;5.10;4.23;;;;;;;;;;5060209;28;20529;-52
2022/11/28 14:06:19;;;;;;;7.10;4.53;;;;;;;;;;5037690;28;20461;-54
2022/11/28 14:08:46;;;;;;;4.90;3.53;;;;;;;;;;5058177;28;20965;-54
2022/11/28 14:11:20;;;;;;;7.03;4.20;;;;;;;;;;5005683;28;20441;-53
2022/11/28 14:14:04;;;;;;;6.90;4.03;;;;;;;;;;5055823;28;20920;-54
2022/11/28 14:16:33;;;;;;;6.60;4.90;;;;;;;;;;5041953;28;20456;-54
2022/11/28 14:19:11;;;;;;;7.77;3.97;;;;;;;;;;5068017;28;20429;-54
2022/11/28 14:21:44;;;;;;;4.30;3.60;;;;;;;;;;5047657;28;20452;-55
2022/11/28 14:24:33;;;;;;;5.97;3.57;;;;;;;;;;5041276;28;20452;-54
2022/11/28 14:27:00;;;;;;;4.50;3.17;;;;;;;;;;5004502;28;20485;-53
2022/11/28 14:29:29;;;;;;;8.80;4.60;;;;;;;;;;5062810;28;20448;-53
2022/11/28 14:31:55;;;;;;;8.03;4.07;;;;;;;;;;5050914;28;20445;-53
2022/11/28 14:34:37;;;;;;;8.10;4.73;;;;;;;;;;5058810;28;20499;-54
2022/11/28 14:37:18;;;;;;;6.83;5.20;;;;;;;;;;5034928;28;20437;-55
2022/11/28 14:39:44;;;;;;;8.50;5.47;;;;;;;;;;5056140;28;20745;-54
2022/11/28 14:42:13;;;;;;;6.93;5.70;;;;;;;;;;5012486;28;20452;-54
2022/11/28 14:44:51;;;;;;;10.53;6.20;;;;;;;;;;5064485;28;20466;-55
2022/11/28 14:47:17;;;;;;;8.10;6.70;;;;;;;;;;5059620;28;20519;-55
2022/11/28 14:49:43;;;;;;;10.90;6.80;;;;;;;;;;5058421;28;20425;-53
2022/11/28 14:52:19;;;;;;;7.40;5.80;;;;;;;;;;5057497;28;20453;-53
2022/11/28 14:54:46;;;;;;;10.27;6.37;;;;;;;;;;5057904;28;20456;-53